Decoded Metar for KSVE (SUSANVILLE MUNI in CA, USA) (IATA:SVE) | Meteo·Mobile Aviation Weather
aviador You're here:

KSVE Decoded Metar

SUSANVILLE MUNI in CA, USA
Report Time2019-02-20 17:55:00
UTC Time2019-02-20 19:18:36
Flight Rules Old
Wind310° at 12 Gusting to 17 kt
W.Decomp.*RWY 29: 12.0 kt HW 0.6 kt RCW
RWY 25: 8.8 kt HW 8.2 kt RCW
W.Rank310° ranks 6
Current wind is above 310° avg. (5.8)
Visibility9999 m
Phenomena:N/A
Clouds:Few 050 Hf
Expected CloudBase > 4,800 ft AGL from Temp-Dew spread
CeilingNone
Temp03°C (ISA -4)
Dew Point-9°C (41% RH)
AAT-4.3°C
QNH1008 hPa
Density Alt3,914 ft
Elevation4,144 ft
Report Wrong Elevation
Raw Report
KSVE 201755Z AUTO 31012G17KT 10SM FEW050 03/M09 A2978 RMK AO2=

Extra information for KSVE:More info

Airport Information Weather charts Add Link Nearby Venues Social comments

AIRNAV info for KSVE